sensor_id;sensor_type;location;lat;lon;timestamp;P1;durP1;ratioP1;P2;durP2;ratioP2
59828;SDS011;45708;51.848;107.620;2023-06-22T00:04:30;2.65;;;2.22;;
59828;SDS011;45708;51.848;107.620;2023-06-22T00:09:31;4.00;;;2.00;;
59828;SDS011;45708;51.848;107.620;2023-06-22T00:14:32;2.88;;;2.55;;
59828;SDS011;45708;51.848;107.620;2023-06-22T00:19:33;4.72;;;2.03;;
59828;SDS011;45708;51.848;107.620;2023-06-22T00:24:33;3.53;;;2.22;;
59828;SDS011;45708;51.848;107.620;2023-06-22T00:29:34;3.78;;;1.85;;
59828;SDS011;45708;51.848;107.620;2023-06-22T00:34:35;2.92;;;1.77;;
59828;SDS011;45708;51.848;107.620;2023-06-22T00:39:36;3.13;;;2.00;;
59828;SDS011;45708;51.848;107.620;2023-06-22T00:44:37;3.03;;;2.42;;
59828;SDS011;45708;51.848;107.620;2023-06-22T00:49:40;3.17;;;1.98;;
59828;SDS011;45708;51.848;107.620;2023-06-22T00:54:42;3.25;;;2.58;;
59828;SDS011;45708;51.848;107.620;2023-06-22T00:59:44;4.78;;;3.63;;
59828;SDS011;45708;51.848;107.620;2023-06-22T01:04:45;2.50;;;1.75;;
59828;SDS011;45708;51.848;107.620;2023-06-22T01:09:57;3.03;;;2.13;;
59828;SDS011;45708;51.848;107.620;2023-06-22T01:21:04;3.72;;;2.38;;
59828;SDS011;45708;51.848;107.620;2023-06-22T01:26:19;4.15;;;1.83;;
59828;SDS011;45708;51.848;107.620;2023-06-22T01:31:28;2.45;;;1.88;;
59828;SDS011;45708;51.848;107.620;2023-06-22T01:36:32;2.83;;;2.35;;
59828;SDS011;45708;51.848;107.620;2023-06-22T01:41:34;3.45;;;2.67;;
59828;SDS011;45708;51.848;107.620;2023-06-22T01:46:37;2.90;;;1.98;;
59828;SDS011;45708;51.848;107.620;2023-06-22T01:51:39;4.22;;;2.30;;
59828;SDS011;45708;51.848;107.620;2023-06-22T01:56:40;3.22;;;2.13;;
59828;SDS011;45708;51.848;107.620;2023-06-22T02:01:42;4.97;;;2.40;;
59828;SDS011;45708;51.848;107.620;2023-06-22T02:06:49;2.95;;;2.08;;
59828;SDS011;45708;51.848;107.620;2023-06-22T02:11:55;1.63;;;1.50;;
59828;SDS011;45708;51.848;107.620;2023-06-22T02:16:57;4.65;;;2.35;;
59828;SDS011;45708;51.848;107.620;2023-06-22T02:21:58;5.25;;;2.42;;
59828;SDS011;45708;51.848;107.620;2023-06-22T02:26:59;2.45;;;2.05;;
59828;SDS011;45708;51.848;107.620;2023-06-22T02:32:00;3.17;;;1.83;;
59828;SDS011;45708;51.848;107.620;2023-06-22T02:37:01;2.88;;;2.47;;
59828;SDS011;45708;51.848;107.620;2023-06-22T02:42:02;5.03;;;2.20;;
59828;SDS011;45708;51.848;107.620;2023-06-22T02:47:04;4.68;;;2.40;;
59828;SDS011;45708;51.848;107.620;2023-06-22T02:52:05;1.83;;;1.58;;
59828;SDS011;45708;51.848;107.620;2023-06-22T02:57:06;3.22;;;1.70;;
59828;SDS011;45708;51.848;107.620;2023-06-22T03:02:07;2.05;;;1.85;;
59828;SDS011;45708;51.848;107.620;2023-06-22T03:07:08;2.13;;;1.95;;
59828;SDS011;45708;51.848;107.620;2023-06-22T03:12:09;3.47;;;2.80;;
59828;SDS011;45708;51.848;107.620;2023-06-22T03:17:10;6.30;;;2.88;;
59828;SDS011;45708;51.848;107.620;2023-06-22T03:22:11;3.25;;;2.10;;
59828;SDS011;45708;51.848;107.620;2023-06-22T03:27:12;3.00;;;2.30;;
59828;SDS011;45708;51.848;107.620;2023-06-22T03:32:14;5.03;;;2.10;;
59828;SDS011;45708;51.848;107.620;2023-06-22T03:37:15;2.70;;;2.50;;
59828;SDS011;45708;51.848;107.620;2023-06-22T03:42:15;2.45;;;1.95;;
59828;SDS011;45708;51.848;107.620;2023-06-22T03:47:16;8.15;;;2.13;;
59828;SDS011;45708;51.848;107.620;2023-06-22T03:52:17;3.30;;;1.90;;
59828;SDS011;45708;51.848;107.620;2023-06-22T03:57:18;3.95;;;2.90;;
59828;SDS011;45708;51.848;107.620;2023-06-22T04:02:19;7.40;;;2.33;;
59828;SDS011;45708;51.848;107.620;2023-06-22T04:07:20;3.28;;;2.00;;
59828;SDS011;45708;51.848;107.620;2023-06-22T04:12:21;3.45;;;2.50;;
59828;SDS011;45708;51.848;107.620;2023-06-22T04:17:21;3.30;;;2.08;;
59828;SDS011;45708;51.848;107.620;2023-06-22T04:22:22;2.47;;;1.92;;
59828;SDS011;45708;51.848;107.620;2023-06-22T04:27:23;2.53;;;2.33;;
59828;SDS011;45708;51.848;107.620;2023-06-22T04:32:24;3.08;;;2.75;;
59828;SDS011;45708;51.848;107.620;2023-06-22T04:37:25;2.45;;;2.25;;
59828;SDS011;45708;51.848;107.620;2023-06-22T04:42:26;3.85;;;2.13;;
59828;SDS011;45708;51.848;107.620;2023-06-22T04:47:27;2.88;;;2.10;;
59828;SDS011;45708;51.848;107.620;2023-06-22T04:52:27;3.05;;;2.20;;
59828;SDS011;45708;51.848;107.620;2023-06-22T04:57:28;2.67;;;2.00;;
59828;SDS011;45708;51.848;107.620;2023-06-22T05:02:29;4.28;;;1.95;;
59828;SDS011;45708;51.848;107.620;2023-06-22T05:07:30;3.38;;;1.98;;
59828;SDS011;45708;51.848;107.620;2023-06-22T05:12:31;3.13;;;1.80;;
59828;SDS011;45708;51.848;107.620;2023-06-22T05:17:32;2.65;;;2.03;;
59828;SDS011;45708;51.848;107.620;2023-06-22T05:22:32;2.22;;;1.70;;
59828;SDS011;45708;51.848;107.620;2023-06-22T05:27:33;2.15;;;1.48;;
59828;SDS011;45708;51.848;107.620;2023-06-22T05:32:34;2.83;;;2.10;;
59828;SDS011;45708;51.848;107.620;2023-06-22T05:37:36;2.30;;;1.90;;
59828;SDS011;45708;51.848;107.620;2023-06-22T05:42:37;2.22;;;1.70;;
59828;SDS011;45708;51.848;107.620;2023-06-22T05:47:37;2.72;;;1.92;;
59828;SDS011;45708;51.848;107.620;2023-06-22T05:52:38;3.28;;;2.30;;
59828;SDS011;45708;51.848;107.620;2023-06-22T05:57:39;2.42;;;2.10;;
59828;SDS011;45708;51.848;107.620;2023-06-22T06:02:40;4.68;;;3.60;;
59828;SDS011;45708;51.848;107.620;2023-06-22T06:07:44;2.58;;;1.98;;
59828;SDS011;45708;51.848;107.620;2023-06-22T06:12:46;3.15;;;2.85;;
59828;SDS011;45708;51.848;107.620;2023-06-22T06:17:47;3.30;;;2.47;;
59828;SDS011;45708;51.848;107.620;2023-06-22T06:22:49;4.03;;;3.05;;
59828;SDS011;45708;51.848;107.620;2023-06-22T06:27:51;9.48;;;2.90;;
59828;SDS011;45708;51.848;107.620;2023-06-22T06:32:52;2.88;;;2.22;;
59828;SDS011;45708;51.848;107.620;2023-06-22T06:37:52;5.95;;;2.70;;
59828;SDS011;45708;51.848;107.620;2023-06-22T06:42:53;3.70;;;3.13;;
59828;SDS011;45708;51.848;107.620;2023-06-22T06:47:54;2.95;;;2.30;;
59828;SDS011;45708;51.848;107.620;2023-06-22T06:52:55;2.80;;;2.22;;
59828;SDS011;45708;51.848;107.620;2023-06-22T06:57:56;4.22;;;2.83;;
59828;SDS011;45708;51.848;107.620;2023-06-22T07:02:56;3.92;;;2.75;;
59828;SDS011;45708;51.848;107.620;2023-06-22T07:07:57;2.63;;;2.42;;
59828;SDS011;45708;51.848;107.620;2023-06-22T07:12:58;2.75;;;2.20;;
59828;SDS011;45708;51.848;107.620;2023-06-22T07:17:59;5.45;;;2.88;;
59828;SDS011;45708;51.848;107.620;2023-06-22T07:23:00;5.15;;;2.58;;
59828;SDS011;45708;51.848;107.620;2023-06-22T07:28:04;4.40;;;2.08;;
59828;SDS011;45708;51.848;107.620;2023-06-22T07:33:06;2.75;;;2.47;;
59828;SDS011;45708;51.848;107.620;2023-06-22T07:38:07;2.60;;;2.40;;
59828;SDS011;45708;51.848;107.620;2023-06-22T07:43:07;2.97;;;2.67;;
59828;SDS011;45708;51.848;107.620;2023-06-22T07:48:08;3.90;;;2.30;;
59828;SDS011;45708;51.848;107.620;2023-06-22T07:53:09;2.80;;;1.73;;
59828;SDS011;45708;51.848;107.620;2023-06-22T07:58:10;3.47;;;2.25;;
59828;SDS011;45708;51.848;107.620;2023-06-22T08:03:10;2.50;;;1.80;;
59828;SDS011;45708;51.848;107.620;2023-06-22T08:08:11;4.70;;;2.33;;
59828;SDS011;45708;51.848;107.620;2023-06-22T08:13:12;3.83;;;2.25;;
59828;SDS011;45708;51.848;107.620;2023-06-22T08:18:14;2.00;;;1.80;;
59828;SDS011;45708;51.848;107.620;2023-06-22T08:23:15;3.17;;;2.25;;
59828;SDS011;45708;51.848;107.620;2023-06-22T08:28:15;2.95;;;2.65;;
59828;SDS011;45708;51.848;107.620;2023-06-22T08:33:16;2.00;;;1.80;;
59828;SDS011;45708;51.848;107.620;2023-06-22T08:38:17;2.92;;;2.30;;
59828;SDS011;45708;51.848;107.620;2023-06-22T08:43:18;3.20;;;2.15;;
59828;SDS011;45708;51.848;107.620;2023-06-22T08:48:19;4.30;;;3.28;;
59828;SDS011;45708;51.848;107.620;2023-06-22T08:53:19;2.10;;;1.90;;
59828;SDS011;45708;51.848;107.620;2023-06-22T08:58:20;3.15;;;2.10;;
59828;SDS011;45708;51.848;107.620;2023-06-22T09:03:21;2.65;;;1.88;;
59828;SDS011;45708;51.848;107.620;2023-06-22T09:08:22;2.20;;;1.83;;
59828;SDS011;45708;51.848;107.620;2023-06-22T09:13:23;1.67;;;1.33;;
59828;SDS011;45708;51.848;107.620;2023-06-22T09:18:23;2.03;;;1.80;;
59828;SDS011;45708;51.848;107.620;2023-06-22T09:23:24;3.08;;;2.17;;
59828;SDS011;45708;51.848;107.620;2023-06-22T09:28:25;1.98;;;1.80;;
59828;SDS011;45708;51.848;107.620;2023-06-22T09:33:26;2.20;;;1.80;;
59828;SDS011;45708;51.848;107.620;2023-06-22T09:38:27;2.67;;;2.22;;
59828;SDS011;45708;51.848;107.620;2023-06-22T09:43:28;3.95;;;2.28;;
59828;SDS011;45708;51.848;107.620;2023-06-22T09:48:29;3.10;;;2.10;;
59828;SDS011;45708;51.848;107.620;2023-06-22T09:53:29;2.05;;;1.95;;
59828;SDS011;45708;51.848;107.620;2023-06-22T09:58:30;3.20;;;2.08;;
59828;SDS011;45708;51.848;107.620;2023-06-22T10:03:31;2.20;;;2.00;;
59828;SDS011;45708;51.848;107.620;2023-06-22T10:08:32;1.98;;;1.85;;
59828;SDS011;45708;51.848;107.620;2023-06-22T10:13:33;3.78;;;2.53;;
59828;SDS011;45708;51.848;107.620;2023-06-22T10:18:34;2.50;;;1.83;;
59828;SDS011;45708;51.848;107.620;2023-06-22T10:23:35;2.55;;;2.30;;
59828;SDS011;45708;51.848;107.620;2023-06-22T10:28:36;2.58;;;2.38;;
59828;SDS011;45708;51.848;107.620;2023-06-22T10:33:36;2.40;;;2.20;;
59828;SDS011;45708;51.848;107.620;2023-06-22T10:38:37;3.00;;;2.70;;
59828;SDS011;45708;51.848;107.620;2023-06-22T10:43:38;11.43;;;3.35;;
59828;SDS011;45708;51.848;107.620;2023-06-22T10:48:39;3.47;;;3.15;;
59828;SDS011;45708;51.848;107.620;2023-06-22T10:53:40;8.52;;;7.65;;
59828;SDS011;45708;51.848;107.620;2023-06-22T10:58:41;3.53;;;2.60;;
59828;SDS011;45708;51.848;107.620;2023-06-22T11:03:41;2.42;;;2.22;;
59828;SDS011;45708;51.848;107.620;2023-06-22T11:08:43;2.75;;;2.47;;
59828;SDS011;45708;51.848;107.620;2023-06-22T11:13:45;5.28;;;2.38;;
59828;SDS011;45708;51.848;107.620;2023-06-22T11:18:46;6.45;;;3.00;;
59828;SDS011;45708;51.848;107.620;2023-06-22T11:23:46;6.95;;;2.63;;
59828;SDS011;45708;51.848;107.620;2023-06-22T11:28:47;3.17;;;2.90;;
59828;SDS011;45708;51.848;107.620;2023-06-22T11:33:48;8.00;;;2.95;;
59828;SDS011;45708;51.848;107.620;2023-06-22T11:38:49;3.17;;;2.42;;
59828;SDS011;45708;51.848;107.620;2023-06-22T11:43:49;3.47;;;2.63;;
59828;SDS011;45708;51.848;107.620;2023-06-22T11:48:50;6.18;;;2.97;;
59828;SDS011;45708;51.848;107.620;2023-06-22T11:53:51;7.00;;;5.97;;
59828;SDS011;45708;51.848;107.620;2023-06-22T11:58:52;5.70;;;2.38;;
59828;SDS011;45708;51.848;107.620;2023-06-22T12:03:52;6.60;;;3.10;;
59828;SDS011;45708;51.848;107.620;2023-06-22T12:08:53;4.07;;;2.65;;
59828;SDS011;45708;51.848;107.620;2023-06-22T12:13:54;5.57;;;2.17;;
59828;SDS011;45708;51.848;107.620;2023-06-22T12:18:55;3.17;;;2.65;;
59828;SDS011;45708;51.848;107.620;2023-06-22T12:23:56;5.97;;;3.15;;
59828;SDS011;45708;51.848;107.620;2023-06-22T12:28:57;4.70;;;2.50;;
59828;SDS011;45708;51.848;107.620;2023-06-22T12:33:57;3.80;;;2.78;;
59828;SDS011;45708;51.848;107.620;2023-06-22T12:38:58;4.82;;;3.50;;
59828;SDS011;45708;51.848;107.620;2023-06-22T12:43:59;13.82;;;6.03;;
59828;SDS011;45708;51.848;107.620;2023-06-22T12:49:00;17.90;;;9.48;;
59828;SDS011;45708;51.848;107.620;2023-06-22T12:54:01;10.65;;;5.28;;
59828;SDS011;45708;51.848;107.620;2023-06-22T12:59:02;8.50;;;5.75;;
59828;SDS011;45708;51.848;107.620;2023-06-22T13:04:03;6.70;;;3.95;;
59828;SDS011;45708;51.848;107.620;2023-06-22T13:09:04;4.40;;;3.78;;
59828;SDS011;45708;51.848;107.620;2023-06-22T13:14:05;4.95;;;3.63;;
59828;SDS011;45708;51.848;107.620;2023-06-22T13:19:06;3.35;;;3.03;;
59828;SDS011;45708;51.848;107.620;2023-06-22T13:24:07;4.13;;;2.72;;
59828;SDS011;45708;51.848;107.620;2023-06-22T13:29:08;3.78;;;2.78;;
59828;SDS011;45708;51.848;107.620;2023-06-22T13:34:09;2.97;;;2.53;;
59828;SDS011;45708;51.848;107.620;2023-06-22T13:39:10;4.20;;;2.33;;
59828;SDS011;45708;51.848;107.620;2023-06-22T13:44:11;3.97;;;3.08;;
59828;SDS011;45708;51.848;107.620;2023-06-22T13:49:12;7.40;;;3.10;;
59828;SDS011;45708;51.848;107.620;2023-06-22T13:54:12;4.78;;;3.10;;
59828;SDS011;45708;51.848;107.620;2023-06-22T13:59:13;2.53;;;2.15;;
59828;SDS011;45708;51.848;107.620;2023-06-22T14:04:14;3.40;;;3.00;;
59828;SDS011;45708;51.848;107.620;2023-06-22T14:09:17;3.38;;;3.08;;
59828;SDS011;45708;51.848;107.620;2023-06-22T14:14:18;4.10;;;1.95;;
59828;SDS011;45708;51.848;107.620;2023-06-22T14:19:18;4.55;;;2.80;;
59828;SDS011;45708;51.848;107.620;2023-06-22T14:24:19;5.55;;;3.60;;
59828;SDS011;45708;51.848;107.620;2023-06-22T14:29:21;10.18;;;3.88;;
59828;SDS011;45708;51.848;107.620;2023-06-22T14:34:22;6.25;;;3.50;;
59828;SDS011;45708;51.848;107.620;2023-06-22T14:39:23;5.50;;;3.60;;
59828;SDS011;45708;51.848;107.620;2023-06-22T14:44:23;8.95;;;3.80;;
59828;SDS011;45708;51.848;107.620;2023-06-22T14:49:24;10.60;;;4.30;;
59828;SDS011;45708;51.848;107.620;2023-06-22T14:54:25;4.90;;;3.83;;
59828;SDS011;45708;51.848;107.620;2023-06-22T14:59:26;5.95;;;3.72;;
59828;SDS011;45708;51.848;107.620;2023-06-22T15:04:27;5.50;;;3.67;;
59828;SDS011;45708;51.848;107.620;2023-06-22T15:09:27;3.22;;;2.00;;
59828;SDS011;45708;51.848;107.620;2023-06-22T15:14:28;5.05;;;3.30;;
59828;SDS011;45708;51.848;107.620;2023-06-22T15:19:29;3.22;;;2.45;;
59828;SDS011;45708;51.848;107.620;2023-06-22T15:24:30;4.07;;;2.63;;
59828;SDS011;45708;51.848;107.620;2023-06-22T15:29:31;3.15;;;2.30;;
59828;SDS011;45708;51.848;107.620;2023-06-22T15:34:32;3.28;;;1.83;;
59828;SDS011;45708;51.848;107.620;2023-06-22T15:39:33;6.70;;;2.30;;
59828;SDS011;45708;51.848;107.620;2023-06-22T15:44:34;6.70;;;3.28;;
59828;SDS011;45708;51.848;107.620;2023-06-22T15:49:35;3.25;;;2.20;;
59828;SDS011;45708;51.848;107.620;2023-06-22T15:54:35;1.88;;;1.63;;
59828;SDS011;45708;51.848;107.620;2023-06-22T15:59:36;3.10;;;1.98;;
59828;SDS011;45708;51.848;107.620;2023-06-22T16:04:37;5.07;;;2.60;;
59828;SDS011;45708;51.848;107.620;2023-06-22T16:09:38;2.58;;;1.60;;
59828;SDS011;45708;51.848;107.620;2023-06-22T16:14:39;3.03;;;1.73;;
59828;SDS011;45708;51.848;107.620;2023-06-22T16:19:39;1.50;;;1.27;;
59828;SDS011;45708;51.848;107.620;2023-06-22T16:24:40;1.77;;;1.55;;
59828;SDS011;45708;51.848;107.620;2023-06-22T16:29:42;2.78;;;1.65;;
59828;SDS011;45708;51.848;107.620;2023-06-22T16:34:43;3.95;;;1.60;;
59828;SDS011;45708;51.848;107.620;2023-06-22T16:39:44;2.25;;;1.67;;
59828;SDS011;45708;51.848;107.620;2023-06-22T16:44:44;1.67;;;1.55;;
59828;SDS011;45708;51.848;107.620;2023-06-22T16:49:45;3.22;;;2.60;;
59828;SDS011;45708;51.848;107.620;2023-06-22T16:54:46;2.63;;;2.42;;
59828;SDS011;45708;51.848;107.620;2023-06-22T16:59:50;3.55;;;2.15;;
59828;SDS011;45708;51.848;107.620;2023-06-22T17:04:53;2.30;;;2.10;;
59828;SDS011;45708;51.848;107.620;2023-06-22T17:09:54;4.72;;;3.15;;
59828;SDS011;45708;51.848;107.620;2023-06-22T17:14:57;3.22;;;1.88;;
59828;SDS011;45708;51.848;107.620;2023-06-22T17:19:58;3.83;;;2.47;;
59828;SDS011;45708;51.848;107.620;2023-06-22T17:24:59;4.80;;;3.55;;
59828;SDS011;45708;51.848;107.620;2023-06-22T17:30:18;3.15;;;2.83;;
59828;SDS011;45708;51.848;107.620;2023-06-22T17:35:19;6.65;;;2.63;;
59828;SDS011;45708;51.848;107.620;2023-06-22T17:40:20;6.35;;;3.83;;
59828;SDS011;45708;51.848;107.620;2023-06-22T17:45:22;6.35;;;3.17;;
59828;SDS011;45708;51.848;107.620;2023-06-22T17:50:24;2.83;;;2.55;;
59828;SDS011;45708;51.848;107.620;2023-06-22T17:55:25;3.55;;;3.25;;
59828;SDS011;45708;51.848;107.620;2023-06-22T18:00:26;3.80;;;3.25;;
59828;SDS011;45708;51.848;107.620;2023-06-22T18:05:32;3.55;;;2.78;;
59828;SDS011;45708;51.848;107.620;2023-06-22T18:10:35;5.85;;;2.50;;
59828;SDS011;45708;51.848;107.620;2023-06-22T18:15:38;4.70;;;2.45;;
59828;SDS011;45708;51.848;107.620;2023-06-22T18:20:39;3.58;;;2.40;;
59828;SDS011;45708;51.848;107.620;2023-06-22T18:25:40;4.90;;;3.47;;
59828;SDS011;45708;51.848;107.620;2023-06-22T18:30:42;4.88;;;3.50;;
59828;SDS011;45708;51.848;107.620;2023-06-22T18:35:43;5.07;;;3.17;;
59828;SDS011;45708;51.848;107.620;2023-06-22T18:40:48;4.65;;;2.67;;
59828;SDS011;45708;51.848;107.620;2023-06-22T18:45:52;7.00;;;3.78;;
59828;SDS011;45708;51.848;107.620;2023-06-22T18:50:53;3.60;;;2.83;;
59828;SDS011;45708;51.848;107.620;2023-06-22T18:56:13;2.57;;;2.27;;
59828;SDS011;45708;51.848;107.620;2023-06-22T19:01:15;5.63;;;4.22;;
59828;SDS011;45708;51.848;107.620;2023-06-22T19:12:37;5.35;;;3.00;;
59828;SDS011;45708;51.848;107.620;2023-06-22T19:17:21;3.70;;;3.20;;
59828;SDS011;45708;51.848;107.620;2023-06-22T19:22:42;3.83;;;3.05;;
59828;SDS011;45708;51.848;107.620;2023-06-22T19:27:56;6.53;;;3.25;;
59828;SDS011;45708;51.848;107.620;2023-06-22T19:32:56;5.43;;;3.15;;
59828;SDS011;45708;51.848;107.620;2023-06-22T19:37:57;4.93;;;2.97;;
59828;SDS011;45708;51.848;107.620;2023-06-22T19:42:58;3.42;;;2.88;;
59828;SDS011;45708;51.848;107.620;2023-06-22T19:47:59;4.70;;;3.22;;
59828;SDS011;45708;51.848;107.620;2023-06-22T19:52:59;4.82;;;4.38;;
59828;SDS011;45708;51.848;107.620;2023-06-22T19:58:00;3.40;;;3.10;;
59828;SDS011;45708;51.848;107.620;2023-06-22T20:03:01;9.45;;;4.40;;
59828;SDS011;45708;51.848;107.620;2023-06-22T20:08:02;12.85;;;4.75;;
59828;SDS011;45708;51.848;107.620;2023-06-22T20:13:09;4.03;;;3.03;;
59828;SDS011;45708;51.848;107.620;2023-06-22T20:18:18;3.17;;;2.78;;
59828;SDS011;45708;51.848;107.620;2023-06-22T20:23:22;5.45;;;3.20;;
59828;SDS011;45708;51.848;107.620;2023-06-22T20:28:24;6.90;;;4.47;;
59828;SDS011;45708;51.848;107.620;2023-06-22T20:33:25;6.75;;;3.47;;
59828;SDS011;45708;51.848;107.620;2023-06-22T20:38:26;5.68;;;3.38;;
59828;SDS011;45708;51.848;107.620;2023-06-22T20:43:27;5.18;;;3.10;;
59828;SDS011;45708;51.848;107.620;2023-06-22T20:48:28;6.40;;;3.92;;
59828;SDS011;45708;51.848;107.620;2023-06-22T20:53:29;4.75;;;3.97;;
59828;SDS011;45708;51.848;107.620;2023-06-22T20:58:30;3.08;;;2.78;;
59828;SDS011;45708;51.848;107.620;2023-06-22T21:03:30;5.05;;;3.88;;
59828;SDS011;45708;51.848;107.620;2023-06-22T21:08:31;6.80;;;4.18;;
59828;SDS011;45708;51.848;107.620;2023-06-22T21:13:32;6.05;;;4.30;;
59828;SDS011;45708;51.848;107.620;2023-06-22T21:18:33;6.72;;;4.03;;
59828;SDS011;45708;51.848;107.620;2023-06-22T21:23:34;3.97;;;3.55;;
59828;SDS011;45708;51.848;107.620;2023-06-22T21:28:34;6.55;;;4.05;;
59828;SDS011;45708;51.848;107.620;2023-06-22T21:33:35;4.63;;;4.13;;
59828;SDS011;45708;51.848;107.620;2023-06-22T21:38:36;6.25;;;4.82;;
59828;SDS011;45708;51.848;107.620;2023-06-22T21:43:37;7.40;;;5.15;;
59828;SDS011;45708;51.848;107.620;2023-06-22T21:48:37;6.55;;;4.47;;
59828;SDS011;45708;51.848;107.620;2023-06-22T21:53:38;4.32;;;3.90;;
59828;SDS011;45708;51.848;107.620;2023-06-22T21:58:39;9.20;;;4.95;;
59828;SDS011;45708;51.848;107.620;2023-06-22T22:03:40;7.22;;;5.15;;
59828;SDS011;45708;51.848;107.620;2023-06-22T22:08:41;6.63;;;3.88;;
59828;SDS011;45708;51.848;107.620;2023-06-22T22:13:41;7.45;;;4.07;;
59828;SDS011;45708;51.848;107.620;2023-06-22T22:18:42;8.45;;;5.15;;
59828;SDS011;45708;51.848;107.620;2023-06-22T22:23:43;8.00;;;4.57;;
59828;SDS011;45708;51.848;107.620;2023-06-22T22:28:44;10.65;;;5.72;;
59828;SDS011;45708;51.848;107.620;2023-06-22T22:33:45;5.80;;;4.03;;
59828;SDS011;45708;51.848;107.620;2023-06-22T22:38:46;10.32;;;4.97;;
59828;SDS011;45708;51.848;107.620;2023-06-22T22:43:47;6.32;;;4.05;;
59828;SDS011;45708;51.848;107.620;2023-06-22T22:48:48;15.48;;;8.77;;
59828;SDS011;45708;51.848;107.620;2023-06-22T22:53:49;11.93;;;7.22;;
59828;SDS011;45708;51.848;107.620;2023-06-22T22:58:50;13.23;;;6.07;;
59828;SDS011;45708;51.848;107.620;2023-06-22T23:03:51;15.98;;;5.95;;
59828;SDS011;45708;51.848;107.620;2023-06-22T23:08:51;7.28;;;5.60;;
59828;SDS011;45708;51.848;107.620;2023-06-22T23:13:53;10.80;;;5.78;;
59828;SDS011;45708;51.848;107.620;2023-06-22T23:18:55;9.73;;;5.72;;
59828;SDS011;45708;51.848;107.620;2023-06-22T23:23:56;7.35;;;5.20;;
59828;SDS011;45708;51.848;107.620;2023-06-22T23:28:57;10.70;;;4.57;;
59828;SDS011;45708;51.848;107.620;2023-06-22T23:33:57;13.18;;;8.18;;
59828;SDS011;45708;51.848;107.620;2023-06-22T23:38:58;7.65;;;4.85;;
59828;SDS011;45708;51.848;107.620;2023-06-22T23:43:59;17.33;;;6.65;;
59828;SDS011;45708;51.848;107.620;2023-06-22T23:49:00;8.77;;;6.25;;
59828;SDS011;45708;51.848;107.620;2023-06-22T23:54:01;8.77;;;5.20;;
59828;SDS011;45708;51.848;107.620;2023-06-22T23:59:02;13.30;;;7.28;;
